Time;durP1;ratioP1;P1;durP2;ratioP2;P2;SDS_P1;SDS_P2;PMS_P1;PMS_P2;Temp;Humidity;BMP_temperature;BMP_pressure;BME280_temperature;BME280_humidity;BME280_pressure;Samples;Min_cycle;Max_cycle;Signal;HPM_P1;HPM_P2
2022/09/01 00:08:30;;;;;;;0.80;0.70;;;;;;;14.00;63.35;99972.84;430362;1271;142086;-59
2022/09/01 00:18:36;;;;;;;1.80;0.50;;;;;;;13.90;63.35;99976.91;431223;1271;142421;-59
2022/09/01 00:28:43;;;;;;;1.10;0.90;;;;;;;13.78;63.41;99977.96;431094;1270;141737;-60
2022/09/01 00:38:50;;;;;;;1.80;1.10;;;;;;;13.69;63.73;99982.79;431513;1271;144151;-61
2022/09/01 00:49:00;;;;;;;1.70;0.90;;;;;;;13.63;64.14;99984.81;431091;1271;142319;-57
2022/09/01 00:59:10;;;;;;;1.40;0.70;;;;;;;13.55;64.41;99982.50;430567;1271;146069;-58
2022/09/01 01:09:17;;;;;;;2.20;0.70;;;;;;;13.43;64.46;99980.89;431785;1271;142288;-59
2022/09/01 01:29:55;;;;;;;1.60;0.90;;;;;;;13.17;64.70;99979.51;431449;1271;148677;-59
2022/09/01 01:40:01;;;;;;;2.20;0.90;;;;;;;13.07;64.90;99985.80;432086;1271;142951;-60
2022/09/01 01:50:10;;;;;;;1.30;0.60;;;;;;;12.99;65.17;99976.70;430148;1271;142172;-60
2022/09/01 02:00:18;;;;;;;;;;;;;;;12.89;65.28;99971.04;430752;1271;142999;-58
2022/09/01 02:10:40;;;;;;;2.50;1.10;;;;;;;12.77;65.47;99965.14;431617;1270;130260;-58
2022/09/01 02:20:48;;;;;;;5.10;1.60;;;;;;;12.68;65.79;99964.31;430921;1271;144236;-58
2022/09/01 02:30:56;;;;;;;3.70;0.60;;;;;;;12.56;65.89;99959.12;431101;1271;144119;-59
2022/09/01 02:41:04;;;;;;;1.10;0.60;;;;;;;12.39;66.13;99963.77;430819;1271;142899;-60
2022/09/01 02:51:13;;;;;;;2.40;0.90;;;;;;;12.25;66.71;99968.00;430835;1271;143784;-59
2022/09/01 03:01:23;;;;;;;1.60;0.80;;;;;;;12.10;67.27;99976.16;430834;1271;144210;-60
2022/09/01 03:11:33;;;;;;;3.30;0.90;;;;;;;11.93;67.63;99973.17;430451;1271;142678;-59
2022/09/01 03:21:40;;;;;;;5.70;1.30;;;;;;;11.69;68.18;99968.35;431354;1271;148984;-58
2022/09/01 03:31:47;;;;;;;1.60;1.40;;;;;;;11.51;68.86;99972.75;430312;1271;143570;-58
2022/09/01 03:41:54;;;;;;;2.00;0.90;;;;;;;11.35;69.63;99967.98;430392;1271;212536;-58
2022/09/01 03:52:00;;;;;;;3.40;1.10;;;;;;;11.18;70.08;99972.49;431435;1271;142354;-60
2022/09/01 04:02:06;;;;;;;4.80;1.10;;;;;;;11.06;70.57;99975.29;430332;1271;147447;-59
2022/09/01 04:12:14;;;;;;;1.30;1.00;;;;;;;11.01;70.90;99978.26;430812;1273;143844;-58
2022/09/01 04:22:19;;;;;;;;;;;;;;;10.99;71.16;99981.14;430762;1271;148712;-59
2022/09/01 04:32:26;;;;;;;3.70;1.10;;;;;;;11.03;71.21;99985.10;441292;1271;131632;-59
2022/09/01 04:42:33;;;;;;;4.10;1.10;;;;;;;11.15;71.28;99984.23;441598;1270;142945;-57
2022/09/01 04:52:40;;;;;;;2.60;1.10;;;;;;;11.33;71.20;99990.37;447490;1271;142680;-58
2022/09/01 05:02:46;;;;;;;6.80;2.00;;;;;;;11.55;71.13;99985.69;441447;1271;143085;-59
2022/09/01 05:12:57;;;;;;;2.50;1.20;;;;;;;11.80;71.09;99987.12;447602;1271;143185;-59
2022/09/01 05:23:03;;;;;;;6.50;1.00;;;;;;;13.84;70.53;99988.44;446728;1271;141795;-59
2022/09/01 05:33:11;;;;;;;2.80;1.00;;;;;;;23.08;60.69;99981.94;447511;1269;142589;-60
2022/09/01 05:43:17;;;;;;;3.10;0.90;;;;;;;29.87;48.13;99978.05;447496;1271;143957;-60
2022/09/01 05:53:24;;;;;;;3.80;0.90;;;;;;;33.65;40.29;99967.77;446642;1271;183915;-58
2022/09/01 06:03:32;;;;;;;2.00;0.60;;;;;;;36.17;34.81;99972.90;436890;1271;182143;-58
2022/09/01 06:13:43;;;;;;;0.90;0.50;;;;;;;38.11;30.69;99966.00;430748;1271;145922;-59
2022/09/01 06:23:52;;;;;;;2.20;0.50;;;;;;;38.44;27.41;99976.29;430687;1271;143633;-59
2022/09/01 06:33:58;;;;;;;2.60;0.90;;;;;;;38.77;26.01;99976.93;429766;1271;1396852;-59
2022/09/01 06:44:04;;;;;;;1.70;1.30;;;;;;;39.71;24.42;99985.05;431416;1271;145576;-59
2022/09/01 06:54:13;;;;;;;2.30;0.90;;;;;;;39.67;23.15;99990.14;432596;1271;141238;-60
2022/09/01 07:04:20;;;;;;;1.00;0.50;;;;;;;41.05;22.07;99995.79;431857;1271;141470;-57
2022/09/01 07:14:29;;;;;;;0.60;0.60;;;;;;;41.77;20.61;99992.17;430460;1271;146244;-60
2022/09/01 07:24:35;;;;;;;1.30;0.60;;;;;;;40.82;20.15;100001.45;430406;1271;144925;-57
2022/09/01 07:34:43;;;;;;;4.00;0.60;;;;;;;41.44;19.78;100008.59;430815;1271;141430;-58
2022/09/01 07:44:53;;;;;;;2.30;0.90;;;;;;;37.80;20.44;100000.80;430455;1271;143317;-58
2022/09/01 07:55:00;;;;;;;1.30;0.40;;;;;;;36.42;22.03;100002.07;430498;1271;142186;-58
2022/09/01 08:05:08;;;;;;;0.50;0.40;;;;;;;38.12;20.77;100006.32;431415;1271;141956;-59
2022/09/01 08:15:18;;;;;;;2.00;0.60;;;;;;;37.98;20.83;100000.71;432421;1271;141467;-58
2022/09/01 08:25:47;;;;;;;2.80;0.90;;;;;;;38.96;20.16;100001.09;430480;1271;147007;-59
2022/09/01 08:35:54;;;;;;;0.50;0.30;;;;;;;38.61;19.43;100005.43;430694;1271;151581;-58
2022/09/01 08:46:10;;;;;;;1.70;0.90;;;;;;;29.38;24.31;100012.09;431653;1271;141562;-58
2022/09/01 08:56:18;;;;;;;2.10;0.40;;;;;;;25.26;28.15;100015.15;431327;1271;142244;-58
2022/09/01 09:06:30;;;;;;;1.90;0.70;;;;;;;23.57;30.50;100020.30;431659;1271;142605;-58
2022/09/01 09:16:41;;;;;;;2.70;0.20;;;;;;;22.82;32.10;100013.14;431107;1271;142964;-59
2022/09/01 09:26:51;;;;;;;0.40;0.30;;;;;;;22.25;32.64;100005.79;431075;1271;141857;-60
2022/09/01 09:37:00;;;;;;;1.60;0.80;;;;;;;22.46;33.05;100007.36;430980;1271;141624;-58
2022/09/01 09:47:07;;;;;;;3.50;0.50;;;;;;;21.80;33.87;100002.72;429903;1271;143092;-59
2022/09/01 09:57:38;;;;;;;1.40;0.90;;;;;;;21.35;35.26;100004.30;430394;1271;143227;-58
2022/09/01 10:07:44;;;;;;;5.90;0.90;;;;;;;21.27;35.48;99996.88;430737;1271;142358;-60
2022/09/01 10:17:51;;;;;;;1.70;0.30;;;;;;;21.12;35.87;99992.73;431326;1271;147633;-58
2022/09/01 10:28:22;;;;;;;3.50;0.40;;;;;;;20.49;37.15;99995.75;432009;1271;145113;-58
2022/09/01 10:38:31;;;;;;;2.10;0.70;;;;;;;19.59;37.74;100008.34;430921;1271;145042;-58
2022/09/01 10:48:38;;;;;;;1.40;0.50;;;;;;;19.53;36.58;99997.50;432767;1272;141379;-57
2022/09/01 10:59:07;;;;;;;1.30;0.40;;;;;;;20.76;36.11;99980.52;430435;1271;145230;-58
2022/09/01 11:09:37;;;;;;;2.50;1.00;;;;;;;20.63;36.53;99983.71;430845;1271;142227;-59
2022/09/01 11:19:47;;;;;;;0.70;0.50;;;;;;;19.87;38.09;99990.66;431321;1271;140784;-57
2022/09/01 11:29:58;;;;;;;0.80;0.70;;;;;;;19.94;38.42;99994.02;431253;1271;141642;-58
2022/09/01 11:40:08;;;;;;;2.30;0.50;;;;;;;20.51;38.34;99988.55;431731;1271;143297;-59
2022/09/01 11:50:23;;;;;;;1.60;0.60;;;;;;;20.94;38.03;99992.95;430837;1271;142500;-58
2022/09/01 12:00:32;;;;;;;1.50;0.20;;;;;;;20.75;38.41;99991.96;431640;1271;143521;-57
2022/09/01 12:10:39;;;;;;;1.00;0.10;;;;;;;20.72;38.25;99988.39;432584;1271;142283;-57
2022/09/01 12:20:47;;;;;;;0.40;0.30;;;;;;;21.00;37.74;99976.52;430223;1271;142559;-57
2022/09/01 12:30:59;;;;;;;1.60;0.30;;;;;;;20.87;37.75;99967.15;430558;1271;143129;-56
2022/09/01 12:41:25;;;;;;;0.60;0.20;;;;;;;20.23;38.16;99962.95;430285;1271;144846;-59
2022/09/01 12:51:34;;;;;;;2.70;0.40;;;;;;;19.55;39.25;99956.69;431321;1271;141550;-60
2022/09/01 13:01:41;;;;;;;2.70;0.90;;;;;;;19.39;40.27;99948.98;431212;1271;142527;-58
2022/09/01 13:11:48;;;;;;;6.50;0.50;;;;;;;19.67;40.82;99943.88;432224;1271;142131;-59
2022/09/01 13:22:11;;;;;;;2.50;0.60;;;;;;;19.90;40.62;99945.20;430444;1272;140807;-59
2022/09/01 13:32:18;;;;;;;5.90;0.70;;;;;;;19.34;41.31;99951.23;430320;1271;142182;-58
2022/09/01 13:42:26;;;;;;;3.30;0.90;;;;;;;19.08;42.16;99949.30;431651;1271;143345;-59
2022/09/01 13:52:33;;;;;;;2.70;0.80;;;;;;;18.79;42.69;99957.23;430834;1271;142506;-58
2022/09/01 14:02:41;;;;;;;2.70;1.20;;;;;;;18.32;43.55;99960.05;433090;1271;142255;-58
2022/09/01 14:12:48;;;;;;;1.30;0.80;;;;;;;17.80;44.25;99963.45;431324;1271;142577;-59
2022/09/01 14:22:54;;;;;;;3.60;0.70;;;;;;;17.65;45.22;99962.73;430341;1271;143131;-59
2022/09/01 14:33:01;;;;;;;1.90;0.60;;;;;;;17.98;45.06;99957.82;430706;1269;142097;-57
2022/09/01 14:43:11;;;;;;;3.40;0.90;;;;;;;18.14;45.25;99956.02;435496;1271;142986;-59
2022/09/01 14:53:18;;;;;;;1.10;0.40;;;;;;;18.08;46.07;99958.66;439634;1271;141890;-58
2022/09/01 15:03:25;;;;;;;1.30;0.30;;;;;;;17.99;46.38;99956.10;442397;1270;142542;-60
2022/09/01 15:13:31;;;;;;;2.10;0.30;;;;;;;18.04;46.11;99954.77;447358;1271;141642;-58
2022/09/01 15:23:37;;;;;;;2.30;0.70;;;;;;;18.06;46.18;99951.24;431563;1269;182193;-58
2022/09/01 15:33:43;;;;;;;1.30;0.90;;;;;;;17.82;46.56;99950.01;430427;1271;146963;-59
2022/09/01 15:43:49;;;;;;;0.50;0.50;;;;;;;17.46;46.75;99948.46;430328;1271;142876;-59
2022/09/01 15:53:58;;;;;;;1.20;0.30;;;;;;;17.28;47.37;99939.25;434097;1271;141482;-60
2022/09/01 16:04:06;;;;;;;1.00;0.30;;;;;;;17.15;47.26;99933.42;431415;1271;141348;-57
2022/09/01 16:14:12;;;;;;;1.30;0.30;;;;;;;17.04;46.88;99929.95;431406;1271;141800;-59
2022/09/01 16:24:19;;;;;;;3.10;0.50;;;;;;;16.94;47.04;99935.27;430951;1271;142986;-61
2022/09/01 16:34:25;;;;;;;3.30;0.90;;;;;;;16.77;47.27;99928.16;431154;1269;141367;-61
2022/09/01 16:44:44;;;;;;;3.20;0.80;;;;;;;16.61;47.79;99935.15;430210;1271;143693;-59
2022/09/01 16:55:08;;;;;;;2.40;1.00;;;;;;;16.45;47.98;99943.58;431697;1271;140875;-59
2022/09/01 17:05:24;;;;;;;1.70;0.90;;;;;;;16.19;48.11;99945.27;429670;1271;144819;-58
2022/09/01 17:15:38;;;;;;;1.40;0.90;;;;;;;15.90;48.57;99954.83;432207;1271;141593;-64
2022/09/01 17:25:50;;;;;;;3.40;1.00;;;;;;;15.60;49.46;99961.45;430637;1271;144538;-58
2022/09/01 17:36:09;;;;;;;1.40;0.90;;;;;;;15.29;50.64;99972.48;439428;1271;147689;-60
2022/09/01 17:46:29;;;;;;;1.90;1.10;;;;;;;15.11;51.33;99985.14;435565;1271;141854;-59
2022/09/01 17:56:47;;;;;;;3.90;1.20;;;;;;;15.06;51.99;99991.02;432382;1271;143236;-60
2022/09/01 18:07:01;;;;;;;4.30;0.80;;;;;;;15.08;52.47;100007.44;431477;1271;142131;-61
2022/09/01 18:17:13;;;;;;;9.10;2.10;;;;;;;15.08;52.90;100019.44;431462;1271;141430;-60
2022/09/01 18:27:19;;;;;;;10.30;1.80;;;;;;;15.06;53.47;100031.92;432598;1271;146807;-59
2022/09/01 18:37:38;;;;;;;11.20;2.00;;;;;;;14.97;53.77;100032.56;430188;1271;1536560;-58
2022/09/01 18:47:54;;;;;;;4.00;1.10;;;;;;;14.84;54.23;100026.32;431046;1271;146753;-59
2022/09/01 18:58:05;;;;;;;4.40;0.80;;;;;;;14.73;54.25;100019.20;436742;1271;143242;-58
2022/09/01 19:08:22;;;;;;;1.70;0.80;;;;;;;14.61;54.06;100024.84;429544;1271;145587;-60
2022/09/01 19:18:37;;;;;;;1.60;0.70;;;;;;;14.51;54.00;100035.89;430920;1271;141593;-59
2022/09/01 19:28:46;;;;;;;1.00;0.90;;;;;;;14.47;53.88;100041.67;431370;1269;143107;-60
2022/09/01 19:38:52;;;;;;;0.80;0.60;;;;;;;14.33;54.05;100044.27;430530;1271;147223;-61
2022/09/01 19:49:06;;;;;;;2.60;0.90;;;;;;;14.13;54.62;100050.28;433270;1271;143145;-60
2022/09/01 19:59:19;;;;;;;1.20;0.70;;;;;;;13.96;55.08;100058.67;430704;1271;142378;-57
2022/09/01 20:09:30;;;;;;;1.10;0.80;;;;;;;13.90;55.35;100059.79;430925;1271;142388;-60
2022/09/01 20:19:44;;;;;;;1.90;0.70;;;;;;;13.83;55.63;100056.59;432022;1271;144806;-57
2022/09/01 20:29:56;;;;;;;4.10;0.50;;;;;;;13.75;56.08;100061.36;430570;1268;146477;-60
2022/09/01 20:40:08;;;;;;;1.10;0.80;;;;;;;13.71;56.40;100065.70;432376;1271;142946;-59
2022/09/01 20:50:15;;;;;;;1.60;0.70;;;;;;;13.70;57.03;100070.73;430228;1271;143580;-59
2022/09/01 21:00:24;;;;;;;1.40;1.30;;;;;;;13.67;57.46;100074.61;430428;1271;142209;-60
2022/09/01 21:10:40;;;;;;;1.70;0.90;;;;;;;13.63;58.11;100074.15;431324;1271;143392;-58
2022/09/01 21:20:56;;;;;;;2.90;1.30;;;;;;;13.62;58.67;100080.20;430283;1271;144931;-58
2022/09/01 21:31:04;;;;;;;2.10;0.90;;;;;;;13.62;59.05;100081.83;430337;1271;143387;-58
2022/09/01 21:41:10;;;;;;;3.10;1.00;;;;;;;13.59;59.27;100079.52;429606;1271;204521;-58
2022/09/01 21:51:17;;;;;;;1.90;0.90;;;;;;;13.57;59.66;100079.35;430052;1271;142713;-59
2022/09/01 22:01:25;;;;;;;2.50;0.90;;;;;;;13.53;59.90;100087.37;430139;1271;141753;-60
2022/09/01 22:11:32;;;;;;;1.70;1.00;;;;;;;13.51;59.94;100088.49;429915;1271;143403;-58
2022/09/01 22:21:38;;;;;;;2.30;1.00;;;;;;;13.47;60.04;100091.62;431247;1271;142786;-58
2022/09/01 22:31:44;;;;;;;1.70;1.40;;;;;;;13.40;60.05;100085.21;430420;1271;147390;-59
2022/09/01 22:41:50;;;;;;;1.10;0.70;;;;;;;13.35;59.84;100079.73;437116;1271;144378;-59
2022/09/01 22:51:56;;;;;;;3.30;0.90;;;;;;;13.33;59.47;100075.79;447428;1271;185709;-59
2022/09/01 23:02:02;;;;;;;1.50;1.00;;;;;;;13.38;59.35;100077.42;446820;1271;142992;-59
2022/09/01 23:12:08;;;;;;;0.40;0.40;;;;;;;13.37;59.10;100070.84;447555;1271;145812;-59
2022/09/01 23:22:14;;;;;;;3.00;1.20;;;;;;;13.27;59.23;100064.45;432255;1271;143074;-59
2022/09/01 23:32:20;;;;;;;1.30;0.60;;;;;;;13.16;59.34;100066.73;440838;1271;148506;-59
2022/09/01 23:42:26;;;;;;;1.10;0.90;;;;;;;13.04;59.54;100063.71;447237;1270;143260;-58
2022/09/01 23:52:32;;;;;;;2.30;1.30;;;;;;;12.97;59.72;100059.92;437932;1271;144055;-59
